Time;durP1;ratioP1;P1;durP2;ratioP2;P2;SDS_P1;SDS_P2;PMS_P1;PMS_P2;Temp;Humidity;BMP_temperature;BMP_pressure;BME280_temperature;BME280_humidity;BME280_pressure;Samples;Min_cycle;Max_cycle;Signal;HPM_P1;HPM_P2
2023/09/06 00:00:58;;;;;;;44.83;4.27;;;15.80;1.00;;;;;;5016502;28;20519;-79
2023/09/06 00:03:28;;;;;;;40.10;4.00;;;15.70;1.00;;;;;;5032082;28;20470;-80
2023/09/06 00:05:58;;;;;;;40.60;4.20;;;15.70;1.00;;;;;;5024492;28;20878;-80
2023/09/06 00:08:34;;;;;;;40.10;4.17;;;15.70;1.00;;;;;;5028748;28;20384;-80
2023/09/06 00:11:05;;;;;;;43.83;4.10;;;15.70;1.00;;;;;;5032999;28;20414;-80
2023/09/06 00:13:32;;;;;;;37.10;3.70;;;15.60;1.00;;;;;;5015097;28;20433;-80
2023/09/06 00:15:59;;;;;;;43.10;4.90;;;15.60;1.00;;;;;;5019649;28;20414;-79
2023/09/06 00:18:26;;;;;;;46.03;5.17;;;15.70;1.00;;;;;;5025429;28;20800;-80
2023/09/06 00:20:53;;;;;;;44.30;4.27;;;15.60;1.00;;;;;;5017706;28;20394;-80
2023/09/06 00:23:20;;;;;;;37.57;4.10;;;15.50;1.00;;;;;;5015449;28;20402;-80
2023/09/06 00:25:46;;;;;;;44.00;3.90;;;15.50;1.00;;;;;;5033101;28;20394;-80
2023/09/06 00:28:17;;;;;;;44.53;3.83;;;15.60;1.00;;;;;;5032370;28;20498;-80
2023/09/06 00:30:58;;;;;;;40.43;4.27;;;15.50;1.00;;;;;;5020495;28;20424;-80
2023/09/06 00:33:33;;;;;;;39.27;3.93;;;15.50;1.00;;;;;;5034351;28;20476;-80
2023/09/06 00:36:06;;;;;;;38.60;3.63;;;15.40;1.00;;;;;;5031455;28;20558;-80
2023/09/06 00:38:40;;;;;;;40.83;4.00;;;15.40;1.00;;;;;;5034639;28;20742;-80
2023/09/06 00:41:16;;;;;;;38.77;4.10;;;15.50;1.00;;;;;;5028667;28;20958;-80
2023/09/06 00:43:58;;;;;;;41.70;4.47;;;15.40;1.00;;;;;;5017630;28;20942;-79
2023/09/06 00:46:28;;;;;;;43.53;4.07;;;15.40;1.00;;;;;;5029320;28;20455;-79
2023/09/06 00:48:58;;;;;;;42.40;4.37;;;15.30;1.00;;;;;;5016288;28;20816;-79
2023/09/06 00:51:28;;;;;;;44.23;4.70;;;15.30;1.00;;;;;;5032667;28;20481;-79
2023/09/06 00:53:59;;;;;;;41.03;4.27;;;15.30;1.00;;;;;;5019761;28;20924;-79
2023/09/06 00:56:29;;;;;;;38.80;4.10;;;15.30;1.00;;;;;;5030250;28;20546;-80
2023/09/06 00:59:00;;;;;;;38.60;4.27;;;15.30;1.00;;;;;;5014653;28;20466;-80
2023/09/06 01:01:28;;;;;;;39.70;4.10;;;15.30;1.00;;;;;;5023275;28;20402;-80
2023/09/06 01:03:58;;;;;;;38.67;3.90;;;15.20;1.00;;;;;;5024135;28;20896;-80
2023/09/06 01:06:30;;;;;;;41.87;4.50;;;15.60;1.00;;;;;;5031300;28;20405;-80
2023/09/06 01:08:59;;;;;;;42.07;4.77;;;15.10;1.00;;;;;;5028917;28;20423;-80
2023/09/06 01:11:28;;;;;;;44.17;4.50;;;15.10;1.00;;;;;;5028893;28;20415;-78
2023/09/06 01:14:28;;;;;;;42.60;5.00;;;15.10;1.00;;;;;;5023472;28;20474;-79
2023/09/06 01:16:58;;;;;;;44.77;4.23;;;15.10;1.00;;;;;;5033658;28;20459;-79
2023/09/06 01:19:31;;;;;;;46.63;4.10;;;15.60;1.00;;;;;;5032771;28;20448;-79
2023/09/06 01:22:22;;;;;;;42.47;4.23;;;15.10;1.00;;;;;;5033656;28;20420;-78
2023/09/06 01:24:49;;;;;;;38.70;4.23;;;15.00;1.00;;;;;;5033414;28;20435;-79
2023/09/06 01:27:28;;;;;;;40.07;4.50;;;15.00;1.00;;;;;;5030769;28;20488;-79
2023/09/06 01:29:58;;;;;;;40.50;4.37;;;15.00;1.00;;;;;;5032624;28;20453;-78
2023/09/06 01:32:28;;;;;;;40.37;4.53;;;15.10;1.00;;;;;;5027408;28;20944;-79
2023/09/06 01:34:58;;;;;;;39.57;4.70;;;14.90;1.00;;;;;;5013883;28;21007;-79
2023/09/06 01:37:30;;;;;;;39.80;4.27;;;14.90;1.00;;;;;;5016224;28;20955;-79
2023/09/06 01:39:58;;;;;;;39.53;4.20;;;14.80;1.00;;;;;;5022667;28;20412;-79
2023/09/06 01:42:28;;;;;;;40.57;4.37;;;14.80;1.00;;;;;;5026421;28;20430;-79
2023/09/06 01:45:10;;;;;;;41.53;4.97;;;14.80;1.00;;;;;;5023960;28;20512;-78
2023/09/06 01:47:58;;;;;;;40.37;4.20;;;14.80;1.00;;;;;;5022172;28;20432;-79
2023/09/06 01:50:23;;;;;;;37.50;3.97;;;14.80;1.00;;;;;;5026754;28;20439;-79
2023/09/06 01:52:58;;;;;;;43.90;4.60;;;14.80;1.00;;;;;;5024678;28;20394;-79
2023/09/06 01:56:04;;;;;;;42.63;4.30;;;14.80;1.00;;;;;;5032139;28;20532;-79
2023/09/06 01:58:46;;;;;;;45.00;4.70;;;14.80;1.00;;;;;;5032225;28;20432;-79
2023/09/06 02:02:04;;;;;;;42.13;4.40;;;14.70;1.00;;;;;;5029253;28;20462;-79
2023/09/06 02:04:46;;;;;;;41.43;4.17;;;14.70;1.00;;;;;;5026394;28;20469;-79
2023/09/06 02:07:16;;;;;;;38.70;3.90;;;14.70;1.00;;;;;;5022133;28;20480;-78
2023/09/06 02:09:46;;;;;;;39.40;3.97;;;14.70;1.00;;;;;;5023110;28;20432;-80
2023/09/06 02:12:34;;;;;;;40.47;4.17;;;14.70;1.00;;;;;;5022678;28;20543;-79
2023/09/06 02:18:24;;;;;;;39.97;4.40;;;14.60;1.00;;;;;;5027808;28;20506;-79
2023/09/06 02:20:56;;;;;;;39.03;4.10;;;14.60;1.00;;;;;;5025927;28;20418;-79
2023/09/06 02:23:35;;;;;;;39.97;3.77;;;14.70;1.00;;;;;;5031990;28;20400;-79
2023/09/06 02:26:10;;;;;;;38.93;4.63;;;14.60;1.00;;;;;;5030125;28;20402;-79
2023/09/06 02:32:04;;;;;;;43.97;4.70;;;14.60;1.00;;;;;;5022427;28;20401;-80
2023/09/06 02:34:34;;;;;;;38.50;4.30;;;14.60;1.00;;;;;;5028459;28;20420;-80
2023/09/06 02:37:10;;;;;;;40.57;5.27;;;14.70;1.00;;;;;;5027273;28;20995;-80
2023/09/06 02:39:48;;;;;;;41.70;4.97;;;14.60;1.00;;;;;;5024067;28;20747;-80
2023/09/06 02:42:22;;;;;;;42.60;4.10;;;14.70;1.00;;;;;;5023935;28;20391;-79
2023/09/06 02:45:16;;;;;;;39.17;4.57;;;14.60;1.00;;;;;;5035451;28;20405;-79
2023/09/06 02:47:49;;;;;;;38.37;4.23;;;14.60;1.00;;;;;;5018115;28;20420;-79
2023/09/06 02:50:17;;;;;;;41.47;5.33;;;14.60;1.00;;;;;;5018768;28;20530;-79
2023/09/06 02:52:45;;;;;;;49.80;5.07;;;14.60;1.00;;;;;;5023460;28;20390;-79
2023/09/06 02:55:13;;;;;;;42.00;4.80;;;14.60;1.00;;;;;;5033339;28;20410;-79
2023/09/06 02:57:41;;;;;;;42.20;4.63;;;14.70;1.00;;;;;;5027353;28;20450;-79
2023/09/06 03:00:25;;;;;;;39.93;5.50;;;14.60;1.00;;;;;;5016358;28;20917;-78
2023/09/06 03:03:05;;;;;;;38.10;4.30;;;14.60;4.70;;;;;;5034755;28;20393;-79
2023/09/06 03:06:17;;;;;;;41.00;5.13;;;14.70;2.40;;;;;;5023860;28;20462;-78
2023/09/06 03:08:46;;;;;;;38.37;4.70;;;14.60;5.10;;;;;;5035222;28;21069;-78
2023/09/06 03:11:14;;;;;;;39.77;4.70;;;14.60;5.80;;;;;;5030704;28;20439;-79
2023/09/06 03:14:10;;;;;;;47.20;4.97;;;14.70;8.10;;;;;;5016514;28;20905;-80
2023/09/06 03:17:08;;;;;;;39.80;5.10;;;14.70;7.50;;;;;;5032172;28;20434;-83
2023/09/06 03:20:19;;;;;;;46.87;5.57;;;14.70;6.50;;;;;;5030978;28;20394;-82
2023/09/06 03:36:14;;;;;;;40.03;5.40;;;;;;;;;;5020326;28;20398;-84
2023/09/06 03:42:17;;;;;;;46.70;4.80;;;14.50;6.50;;;;;;5017655;28;20400;-84
2023/09/06 03:45:24;;;;;;;39.10;5.27;;;15.20;6.70;;;;;;5024250;28;20393;-84
2023/09/06 03:51:13;;;;;;;41.97;5.33;;;14.40;5.00;;;;;;5024673;28;20414;-83
2023/09/06 04:00:26;;;;;;;39.70;5.40;;;14.30;4.30;;;;;;5031831;28;20389;-82
2023/09/06 04:02:56;;;;;;;42.20;4.77;;;14.30;4.60;;;;;;5016276;28;20383;-83
2023/09/06 04:05:25;;;;;;;44.30;5.20;;;14.40;4.40;;;;;;5024688;28;20415;-83
2023/09/06 04:11:25;;;;;;;42.23;5.23;;;14.20;3.70;;;;;;5028538;28;20389;-83
2023/09/06 04:20:48;;;;;;;39.83;4.90;;;14.10;2.00;;;;;;5026784;28;20399;-84
2023/09/06 04:23:52;;;;;;;39.53;4.60;;;14.10;1.00;;;;;;5021747;28;20397;-84
2023/09/06 04:30:34;;;;;;;39.43;4.50;;;14.10;2.30;;;;;;5035808;28;20870;-83
2023/09/06 04:36:22;;;;;;;38.93;4.60;;;14.00;4.70;;;;;;5026119;28;20397;-83
2023/09/06 04:42:11;;;;;;;43.57;4.90;;;13.90;3.10;;;;;;5015336;28;20492;-83
2023/09/06 04:48:17;;;;;;;41.70;4.97;;;13.90;6.50;;;;;;5032556;28;20516;-84
2023/09/06 04:57:28;;;;;;;41.60;5.77;;;13.90;7.90;;;;;;5027301;28;20491;-82
2023/09/06 05:03:21;;;;;;;41.20;5.47;;;13.90;9.70;;;;;;5027469;28;20791;-83
2023/09/06 05:09:29;;;;;;;39.50;4.73;;;13.90;11.50;;;;;;5033886;28;20420;-83
2023/09/06 05:12:23;;;;;;;45.23;4.87;;;14.00;12.50;;;;;;5032850;28;20509;-83
2023/09/06 05:14:48;;;;;;;49.63;5.80;;;14.00;15.20;;;;;;5020044;28;20497;-82
2023/09/06 05:20:46;;;;;;;46.70;6.10;;;14.10;16.00;;;;;;5021664;28;20261;-83
2023/09/06 05:23:13;;;;;;;45.87;6.50;;;14.10;18.70;;;;;;5019461;28;20463;-83
2023/09/06 05:25:41;;;;;;;44.43;6.90;;;14.10;18.70;;;;;;5024851;28;20530;-83
2023/09/06 05:28:09;;;;;;;43.67;6.30;;;14.20;20.70;;;;;;5018558;28;20499;-83
2023/09/06 05:30:40;;;;;;;44.23;6.80;;;14.20;19.80;;;;;;5014723;28;20400;-82
2023/09/06 05:33:07;;;;;;;43.27;6.60;;;14.30;22.70;;;;;;5030340;28;20487;-82
2023/09/06 05:38:54;;;;;;;43.80;6.43;;;14.40;18.80;;;;;;5033925;28;20414;-82
2023/09/06 05:41:34;;;;;;;49.10;6.90;;;14.90;21.90;;;;;;5032411;28;20477;-82
2023/09/06 05:57:28;;;;;;;45.47;5.83;;;14.70;19.40;;;;;;5016752;28;20457;-82
2023/09/06 06:00:15;;;;;;;41.77;6.10;;;14.80;19.40;;;;;;5028582;28;20441;-83
2023/09/06 06:06:06;;;;;;;45.43;6.67;;;14.90;20.50;;;;;;5024199;28;20512;-81
2023/09/06 06:15:40;;;;;;;43.10;5.93;;;15.00;20.20;;;;;;5027191;28;20388;-83
2023/09/06 06:18:12;;;;;;;45.67;6.63;;;15.10;20.20;;;;;;5028570;28;21012;-83
2023/09/06 06:21:28;;;;;;;48.70;6.70;;;15.30;20.20;;;;;;5032772;28;20798;-83
2023/09/06 06:27:16;;;;;;;54.50;8.60;;;15.30;23.10;;;;;;5027530;28;20827;-84
2023/09/06 06:36:52;;;;;;;44.00;6.77;;;15.70;26.60;;;;;;5039417;28;20461;-83
2023/09/06 06:42:39;;;;;;;47.17;7.57;;;15.90;28.50;;;;;;5028188;28;20463;-84
2023/09/06 06:49:20;;;;;;;51.20;7.13;;;16.10;26.70;;;;;;5029761;28;20414;-83
2023/09/06 06:55:08;;;;;;;49.60;6.97;;;16.40;13.80;;;;;;5030926;28;20898;-85
2023/09/06 06:58:24;;;;;;;44.40;6.43;;;16.50;10.20;;;;;;5034094;28;20465;-85
2023/09/06 07:01:16;;;;;;;52.27;6.40;;;16.70;7.20;;;;;;5022006;28;20344;-83
2023/09/06 07:03:54;;;;;;;46.00;6.47;;;16.70;1.00;;;;;;5020247;28;20439;-83
2023/09/06 07:06:22;;;;;;;44.37;5.63;;;17.00;1.00;;;;;;5031877;28;21174;-83
2023/09/06 07:08:53;;;;;;;44.63;5.37;;;17.00;1.00;;;;;;5033776;28;20425;-83
2023/09/06 07:12:04;;;;;;;45.33;5.67;;;17.10;1.00;;;;;;5035763;28;20778;-83
2023/09/06 07:14:30;;;;;;;42.73;4.90;;;17.20;1.00;;;;;;5024495;28;20422;-84
2023/09/06 07:23:39;;;;;;;44.07;4.73;;;17.70;1.00;;;;;;5033249;28;20785;-82
2023/09/06 07:26:10;;;;;;;37.90;4.40;;;17.90;1.00;;;;;;5028780;28;20397;-82
2023/09/06 07:28:52;;;;;;;45.37;5.20;;;18.00;1.00;;;;;;5027120;28;20484;-81
2023/09/06 07:35:28;;;;;;;40.47;4.90;;;18.30;1.00;;;;;;5028014;28;20356;-82
2023/09/06 07:41:46;;;;;;;41.17;4.40;;;18.60;1.00;;;;;;5018640;28;20454;-82
2023/09/06 07:47:34;;;;;;;38.00;4.20;;;18.90;1.00;;;;;;5016280;28;20484;-82
2023/09/06 07:53:24;;;;;;;37.43;4.30;;;19.30;1.00;;;;;;5034526;28;20399;-82
2023/09/06 07:56:06;;;;;;;40.63;4.03;;;19.40;1.00;;;;;;5034451;28;20431;-82
2023/09/06 07:58:46;;;;;;;43.70;4.90;;;19.60;1.00;;;;;;5026274;28;20973;-82
2023/09/06 08:01:12;;;;;;;40.20;4.00;;;19.70;1.00;;;;;;5027629;28;20796;-82
2023/09/06 08:03:38;;;;;;;39.07;4.47;;;19.80;1.00;;;;;;5032967;28;20432;-83
2023/09/06 08:06:04;;;;;;;39.73;4.50;;;20.00;1.00;;;;;;5023007;28;20178;-83
2023/09/06 08:08:30;;;;;;;38.43;4.30;;;20.00;1.00;;;;;;5024091;28;20275;-83
2023/09/06 08:10:58;;;;;;;39.20;4.57;;;20.20;1.00;;;;;;5028929;28;20932;-83
2023/09/06 08:13:37;;;;;;;46.20;4.27;;;20.30;1.00;;;;;;5034361;28;20598;-83
2023/09/06 08:16:58;;;;;;;39.10;4.33;;;20.40;1.00;;;;;;5024315;28;20505;-83
2023/09/06 08:19:23;;;;;;;37.40;4.47;;;20.60;1.00;;;;;;5022244;28;20441;-83
2023/09/06 08:25:12;;;;;;;38.93;4.53;;;20.80;1.00;;;;;;5016572;28;20263;-83
2023/09/06 08:34:52;;;;;;;39.10;4.27;;;21.30;1.00;;;;;;5022853;28;20479;-83
2023/09/06 08:40:52;;;;;;;37.07;4.20;;;21.50;1.00;;;;;;5028228;28;20482;-84
2023/09/06 08:43:59;;;;;;;41.50;4.93;;;21.60;1.00;;;;;;5021055;28;20413;-85
2023/09/06 08:46:33;;;;;;;42.77;5.00;;;21.70;1.00;;;;;;5015912;28;20428;-84
2023/09/06 08:49:20;;;;;;;37.30;4.57;;;21.90;1.00;;;;;;5032517;28;20552;-83
2023/09/06 08:58:33;;;;;;;37.07;4.17;;;22.20;1.00;;;;;;5019514;28;20530;-83
2023/09/06 09:01:08;;;;;;;38.07;4.60;;;22.30;1.00;;;;;;5017088;28;20452;-84
2023/09/06 09:03:58;;;;;;;37.80;4.50;;;22.40;1.00;;;;;;5020320;28;20452;-84
2023/09/06 09:06:25;;;;;;;37.27;4.27;;;22.50;1.00;;;;;;5033729;28;20443;-85
2023/09/06 09:12:14;;;;;;;36.30;4.17;;;22.80;1.00;;;;;;5029291;28;20920;-84
2023/09/06 09:15:10;;;;;;;39.07;4.30;;;22.90;1.00;;;;;;5025600;28;20893;-84
2023/09/06 09:17:42;;;;;;;38.83;4.83;;;22.90;1.00;;;;;;5014058;28;20462;-84
2023/09/06 09:20:37;;;;;;;36.60;4.20;;;23.00;1.00;;;;;;5049137;28;20427;-84
2023/09/06 09:26:24;;;;;;;40.23;4.40;;;23.30;1.00;;;;;;5026795;28;20800;-83
2023/09/06 09:29:16;;;;;;;37.30;4.63;;;23.50;1.00;;;;;;5032196;28;20422;-84
2023/09/06 09:32:04;;;;;;;37.90;4.53;;;23.70;1.00;;;;;;5021021;28;20198;-84
2023/09/06 09:38:07;;;;;;;35.30;5.03;;;23.90;1.00;;;;;;5015787;28;21009;-84
2023/09/06 09:41:10;;;;;;;38.10;5.37;;;23.90;1.00;;;;;;5016957;28;20495;-84
2023/09/06 09:44:13;;;;;;;37.50;5.40;;;24.00;1.00;;;;;;5024071;28;20414;-84
2023/09/06 09:46:42;;;;;;;37.37;5.57;;;;;;;;;;5029280;28;20794;-85
2023/09/06 09:49:46;;;;;;;40.07;6.10;;;24.20;1.00;;;;;;5016231;28;20403;-85
2023/09/06 09:55:44;;;;;;;37.30;5.17;;;24.30;1.00;;;;;;5024130;28;20470;-85
2023/09/06 09:58:40;;;;;;;40.17;5.67;;;24.50;1.00;;;;;;5029534;28;20536;-84
2023/09/06 10:01:58;;;;;;;35.70;5.40;;;24.50;1.00;;;;;;5020570;28;20465;-84
2023/09/06 10:05:00;;;;;;;35.23;5.50;;;24.60;1.00;;;;;;5025739;28;20515;-85
2023/09/06 10:07:47;;;;;;;36.73;5.30;;;24.70;1.00;;;;;;5028266;28;20437;-86
2023/09/06 10:14:28;;;;;;;35.50;4.87;;;25.00;1.00;;;;;;5030449;28;20452;-85
2023/09/06 10:21:04;;;;;;;38.47;4.67;;;25.40;1.00;;;;;;5023616;28;20418;-86
2023/09/06 10:23:46;;;;;;;35.33;4.27;;;25.60;1.00;;;;;;5023408;28;20458;-86
2023/09/06 10:30:09;;;;;;;37.33;4.80;;;25.70;1.00;;;;;;5033714;28;20402;-86
2023/09/06 10:32:47;;;;;;;36.83;4.73;;;25.80;1.00;;;;;;4988852;28;20433;-85
2023/09/06 10:35:52;;;;;;;36.13;4.90;;;25.80;1.00;;;;;;4975625;28;20432;-84
2023/09/06 10:38:58;;;;;;;34.40;4.60;;;25.90;1.00;;;;;;4983238;28;20552;-85
2023/09/06 10:41:26;;;;;;;38.80;4.20;;;26.00;1.00;;;;;;4970547;28;20479;-85
2023/09/06 10:43:55;;;;;;;33.00;3.80;;;26.10;1.00;;;;;;4977954;28;20449;-84
2023/09/06 10:46:26;;;;;;;33.70;4.33;;;26.20;1.00;;;;;;4990532;28;20424;-83
2023/09/06 10:49:25;;;;;;;34.70;3.90;;;26.20;1.00;;;;;;4961939;28;20442;-85
2023/09/06 10:52:20;;;;;;;34.60;3.63;;;26.30;1.00;;;;;;4894876;29;20451;-89
2023/09/06 10:55:01;;;;;;;31.80;3.20;;;26.50;1.00;;;;;;4901822;29;20442;-87
2023/09/06 10:57:51;;;;;;;32.47;4.03;;;26.70;1.00;;;;;;4885685;29;20482;-86
2023/09/06 11:00:59;;;;;;;36.83;4.30;;;26.70;1.00;;;;;;4897130;29;20855;-86
2023/09/06 11:06:52;;;;;;;31.77;3.93;;;26.90;1.00;;;;;;4919156;29;20464;-88
2023/09/06 11:09:53;;;;;;;32.40;3.83;;;27.00;1.00;;;;;;4939382;29;20452;-82
2023/09/06 11:12:18;;;;;;;35.17;4.40;;;27.10;1.00;;;;;;4940046;29;20438;-88
2023/09/06 11:15:10;;;;;;;34.07;4.40;;;27.20;1.00;;;;;;4960135;28;20473;-88
2023/09/06 11:20:59;;;;;;;31.30;3.70;;;27.40;1.00;;;;;;4956304;29;20442;-85
2023/09/06 11:24:04;;;;;;;32.93;3.57;;;27.50;1.00;;;;;;4947280;28;20432;-86
2023/09/06 11:30:41;;;;;;;33.77;4.00;;;27.60;1.00;;;;;;5026705;28;20764;-86
2023/09/06 11:33:46;;;;;;;38.40;4.47;;;27.70;1.00;;;;;;5025502;28;20415;-85
2023/09/06 11:43:08;;;;;;;31.03;3.77;;;27.80;1.00;;;;;;5017208;28;20446;-86
2023/09/06 11:45:35;;;;;;;31.53;4.17;;;27.90;1.00;;;;;;5028787;28;20957;-85
2023/09/06 11:48:53;;;;;;;31.83;3.67;;;28.00;1.00;;;;;;5026522;28;20841;-85
2023/09/06 11:55:05;;;;;;;32.30;4.00;;;28.10;1.00;;;;;;5023348;28;20449;-85
2023/09/06 12:01:24;;;;;;;32.47;3.80;;;28.30;1.00;;;;;;5026020;28;20408;-86
2023/09/06 12:04:10;;;;;;;35.73;3.60;;;28.40;1.00;;;;;;5031248;28;20512;-89
2023/09/06 12:06:38;;;;;;;32.10;3.50;;;28.40;1.00;;;;;;5026228;28;20574;-87
2023/09/06 12:09:12;;;;;;;33.20;3.70;;;28.50;1.00;;;;;;5027553;28;20424;-88
2023/09/06 12:11:38;;;;;;;34.90;3.60;;;28.50;1.00;;;;;;5025937;28;20541;-87
2023/09/06 12:20:53;;;;;;;30.90;3.53;;;28.70;1.00;;;;;;5032180;28;20834;-85
2023/09/06 12:23:25;;;;;;;31.67;3.50;;;28.70;1.00;;;;;;5028029;28;20448;-85
2023/09/06 12:25:52;;;;;;;31.60;3.60;;;28.70;1.00;;;;;;5019188;28;20426;-86
2023/09/06 12:28:18;;;;;;;31.40;3.60;;;28.80;1.00;;;;;;5020784;28;20969;-85
2023/09/06 12:34:06;;;;;;;32.10;3.70;;;28.80;1.00;;;;;;5017674;28;20260;-85
2023/09/06 12:37:04;;;;;;;30.90;3.53;;;28.90;1.00;;;;;;5029098;28;20481;-85
2023/09/06 12:39:34;;;;;;;31.10;3.57;;;29.10;1.00;;;;;;5032530;28;20429;-85
2023/09/06 12:42:28;;;;;;;31.00;3.47;;;29.20;1.00;;;;;;5034830;28;20431;-85
2023/09/06 12:45:29;;;;;;;31.23;3.40;;;29.20;1.00;;;;;;5028497;28;20484;-85
2023/09/06 12:51:48;;;;;;;30.37;3.27;;;29.30;1.00;;;;;;5020793;28;20426;-88
2023/09/06 12:54:58;;;;;;;36.63;3.40;;;29.40;1.00;;;;;;5022820;28;20470;-88
2023/09/06 12:57:36;;;;;;;33.20;3.00;;;29.40;1.00;;;;;;5029187;28;20530;-89
2023/09/06 13:00:05;;;;;;;31.77;3.43;;;29.50;1.00;;;;;;5018339;28;20488;-87
2023/09/06 13:02:52;;;;;;;32.23;3.70;;;29.50;1.00;;;;;;5027838;28;20428;-86
2023/09/06 13:05:23;;;;;;;31.90;2.90;;;29.60;1.00;;;;;;5024553;28;20418;-87
2023/09/06 13:07:53;;;;;;;32.40;3.43;;;29.60;1.00;;;;;;5030106;28;20454;-90
2023/09/06 13:11:04;;;;;;;31.77;3.07;;;29.60;1.00;;;;;;5024286;28;20541;-89
2023/09/06 13:13:52;;;;;;;32.03;3.10;;;29.70;1.00;;;;;;5032823;28;20438;-89
2023/09/06 13:16:34;;;;;;;32.90;3.53;;;29.70;1.00;;;;;;5021652;28;20493;-89
2023/09/06 13:19:00;;;;;;;32.77;3.43;;;29.80;1.00;;;;;;5024872;28;20435;-84
2023/09/06 13:21:26;;;;;;;34.20;3.27;;;29.80;1.00;;;;;;5027556;28;21042;-83
2023/09/06 13:23:51;;;;;;;31.00;2.90;;;29.80;1.00;;;;;;5022273;28;20194;-83
2023/09/06 13:26:22;;;;;;;31.27;3.10;;;29.90;1.00;;;;;;5025481;28;20192;-83
2023/09/06 13:28:48;;;;;;;31.17;2.87;;;29.90;1.00;;;;;;5022010;28;20186;-84
2023/09/06 13:31:16;;;;;;;33.07;2.90;;;29.90;1.00;;;;;;5026950;28;20427;-85
2023/09/06 13:33:42;;;;;;;31.50;3.00;;;30.00;1.00;;;;;;5032019;28;20181;-86
2023/09/06 13:36:40;;;;;;;32.70;3.30;;;29.90;1.00;;;;;;5023519;28;20439;-85
2023/09/06 13:39:22;;;;;;;36.30;3.40;;;30.00;1.00;;;;;;5029368;28;20436;-85
2023/09/06 13:42:00;;;;;;;32.40;3.20;;;30.10;1.00;;;;;;5029322;28;20420;-85
2023/09/06 13:45:17;;;;;;;31.00;3.30;;;30.10;1.00;;;;;;5025740;28;20488;-84
2023/09/06 13:47:43;;;;;;;32.63;3.50;;;30.20;1.00;;;;;;5023961;28;20424;-83
2023/09/06 13:50:22;;;;;;;32.60;3.70;;;30.20;1.00;;;;;;5022940;28;20426;-87
2023/09/06 13:53:05;;;;;;;32.00;3.40;;;30.30;1.00;;;;;;5034167;28;20422;-87
2023/09/06 13:58:52;;;;;;;39.80;3.67;;;30.40;1.00;;;;;;5032239;28;20469;-86
2023/09/06 14:01:34;;;;;;;31.70;3.10;;;30.30;1.00;;;;;;5019553;28;20519;-88
2023/09/06 14:04:11;;;;;;;32.17;3.37;;;30.30;1.00;;;;;;5048922;28;20164;-87
2023/09/06 14:10:05;;;;;;;31.00;2.97;;;30.40;1.00;;;;;;5042188;28;20434;-91
2023/09/06 14:13:22;;;;;;;34.17;3.30;;;30.40;1.00;;;;;;5028654;28;20431;-89
2023/09/06 14:16:00;;;;;;;30.70;2.80;;;30.40;1.00;;;;;;5017501;28;20502;-88
2023/09/06 14:22:12;;;;;;;32.33;2.97;;;30.50;1.00;;;;;;5019958;28;20745;-85
2023/09/06 14:24:38;;;;;;;31.40;3.00;;;30.60;1.00;;;;;;5029469;28;20434;-85
2023/09/06 14:27:40;;;;;;;35.47;3.10;;;30.60;1.00;;;;;;5031323;28;20407;-84
2023/09/06 14:30:52;;;;;;;32.37;3.00;;;30.60;1.00;;;;;;5036035;28;20422;-85
2023/09/06 14:40:38;;;;;;;30.60;2.77;;;30.60;1.00;;;;;;5035679;28;20502;-87
2023/09/06 14:43:18;;;;;;;33.00;3.37;;;30.60;1.00;;;;;;5031470;28;20784;-87
2023/09/06 14:45:44;;;;;;;35.20;3.23;;;30.70;1.00;;;;;;5032661;28;20496;-87
2023/09/06 14:48:10;;;;;;;31.70;3.30;;;30.80;1.00;;;;;;5033123;28;20930;-87
2023/09/06 14:51:12;;;;;;;31.50;3.07;;;30.80;1.00;;;;;;5025703;28;20177;-84
2023/09/06 14:53:38;;;;;;;36.40;2.97;;;30.80;1.00;;;;;;4992275;28;20432;-85
2023/09/06 14:56:06;;;;;;;32.30;2.70;;;30.90;1.00;;;;;;4976298;28;20485;-85
2023/09/06 14:58:34;;;;;;;32.47;3.40;;;31.10;1.00;;;;;;4989965;28;20202;-84
2023/09/06 15:01:01;;;;;;;30.70;2.50;;;32.30;1.00;;;;;;4976433;28;20437;-84
2023/09/06 15:03:29;;;;;;;31.13;2.60;;;32.50;1.00;;;;;;4981748;28;20976;-85
2023/09/06 15:05:54;;;;;;;31.20;2.67;;;33.70;1.00;;;;;;4990645;28;20430;-87
2023/09/06 15:08:28;;;;;;;30.20;3.00;;;35.00;1.00;;;;;;4971177;28;20445;-87
2023/09/06 15:11:16;;;;;;;32.70;2.73;;;36.40;1.00;;;;;;4935043;28;1336320;-87
2023/09/06 15:14:10;;;;;;;28.17;2.47;;;37.80;1.00;;;;;;4993180;28;20932;-87
2023/09/06 15:17:22;;;;;;;30.10;2.60;;;39.00;1.00;;;;;;4985794;28;21149;-88
2023/09/06 15:19:53;;;;;;;28.33;2.60;;;39.50;1.00;;;;;;4985476;28;20496;-85
2023/09/06 15:22:19;;;;;;;27.13;2.60;;;40.30;1.00;;;;;;4985545;28;20449;-85
2023/09/06 15:24:44;;;;;;;25.67;2.23;;;41.10;1.00;;;;;;4974497;28;20451;-86
2023/09/06 15:27:10;;;;;;;26.87;2.57;;;41.70;1.00;;;;;;4991590;28;20436;-86
2023/09/06 15:29:44;;;;;;;25.87;2.10;;;42.40;1.00;;;;;;5025998;28;20180;-86
2023/09/06 15:32:10;;;;;;;26.17;2.40;;;43.10;1.00;;;;;;5028732;28;20184;-86
2023/09/06 15:34:39;;;;;;;28.77;2.47;;;43.60;1.00;;;;;;5029395;28;20835;-86
2023/09/06 15:37:06;;;;;;;26.80;2.53;;;44.00;1.00;;;;;;5027028;28;20463;-85
2023/09/06 15:39:32;;;;;;;26.77;2.43;;;44.30;1.00;;;;;;5026497;28;20961;-83
2023/09/06 15:41:58;;;;;;;27.87;3.13;;;44.60;1.00;;;;;;5017765;28;20419;-85
2023/09/06 15:44:29;;;;;;;25.53;2.43;;;44.80;1.00;;;;;;5015820;28;20423;-84
2023/09/06 15:46:57;;;;;;;26.30;2.00;;;45.00;1.00;;;;;;5018853;28;20267;-85
2023/09/06 15:49:29;;;;;;;25.37;2.10;;;45.10;1.00;;;;;;5032902;28;20420;-85
2023/09/06 15:52:20;;;;;;;24.50;1.93;;;44.90;1.00;;;;;;5033994;28;20470;-91
2023/09/06 15:58:22;;;;;;;24.20;2.20;;;45.60;1.00;;;;;;5022857;28;20491;-91
2023/09/06 16:00:48;;;;;;;24.87;2.00;;;45.70;1.00;;;;;;5035865;28;20426;-90
2023/09/06 16:03:14;;;;;;;26.50;2.00;;;46.00;1.00;;;;;;5026074;28;20436;-90
2023/09/06 16:05:40;;;;;;;24.30;2.20;;;45.90;1.00;;;;;;5027741;28;20279;-85
2023/09/06 16:08:06;;;;;;;26.03;2.20;;;45.90;1.00;;;;;;5024816;28;20204;-85
2023/09/06 16:11:04;;;;;;;31.77;6.07;;;45.90;1.00;;;;;;5026578;28;20712;-85
2023/09/06 16:13:30;;;;;;;25.17;2.80;;;45.70;1.00;;;;;;5027525;28;20197;-87
2023/09/06 16:16:06;;;;;;;33.40;5.50;;;45.30;1.00;;;;;;5031016;28;20420;-87
2023/09/06 16:21:53;;;;;;;41.23;7.43;;;42.70;1.00;;;;;;5035284;28;20418;-93
2023/09/06 16:27:41;;;;;;;27.13;2.93;;;41.70;1.00;;;;;;5034221;28;20275;-93
2023/09/06 16:33:32;;;;;;;32.33;4.50;;;42.50;1.00;;;;;;5030198;28;20723;-92
2023/09/06 16:42:59;;;;;;;29.40;2.53;;;43.60;1.00;;;;;;5020398;28;20949;-93
2023/09/06 16:45:52;;;;;;;34.00;3.47;;;42.60;1.00;;;;;;5023013;28;20419;-93
2023/09/06 16:48:40;;;;;;;28.67;2.70;;;41.30;1.00;;;;;;5050329;28;20463;-91
2023/09/06 16:51:11;;;;;;;34.43;3.77;;;39.10;1.00;;;;;;5031157;28;20923;-86
2023/09/06 16:56:58;;;;;;;29.37;2.80;;;37.80;1.00;;;;;;5022761;28;20422;-85
2023/09/06 17:02:46;;;;;;;32.43;3.43;;;35.40;1.00;;;;;;5023927;28;20180;-86
2023/09/06 17:05:37;;;;;;;35.23;3.63;;;34.30;1.00;;;;;;5030244;28;21871;-85
2023/09/06 17:11:43;;;;;;;34.20;3.47;;;32.30;1.00;;;;;;5020962;28;20509;-90
2023/09/06 17:14:11;;;;;;;34.87;3.17;;;31.20;1.00;;;;;;5022721;28;20482;-89
2023/09/06 17:20:05;;;;;;;37.67;3.77;;;29.40;1.00;;;;;;5031318;28;20538;-91
2023/09/06 17:25:53;;;;;;;299.30;90.47;;;28.30;1.00;;;;;;5020631;28;20406;-96
2023/09/06 17:35:07;;;;;;;215.70;53.43;;;26.60;1.00;;;;;;5025851;28;20417;-85
2023/09/06 17:37:36;;;;;;;83.30;20.33;;;26.50;1.00;;;;;;5030566;28;20441;-84
2023/09/06 17:40:35;;;;;;;50.73;9.70;;;26.20;1.00;;;;;;5028288;28;20905;-87
2023/09/06 17:46:25;;;;;;;47.60;6.93;;;25.30;1.00;;;;;;5029464;28;20475;-82
2023/09/06 17:49:25;;;;;;;48.80;8.30;;;25.10;1.00;;;;;;5031856;28;20459;-82
2023/09/06 17:52:22;;;;;;;49.80;6.30;;;24.80;1.00;;;;;;5034051;28;20414;-83
2023/09/06 17:54:49;;;;;;;40.73;5.57;;;24.50;1.00;;;;;;5029061;28;20421;-83
2023/09/06 17:57:23;;;;;;;39.23;4.90;;;24.20;1.00;;;;;;5020087;28;20440;-85
2023/09/06 18:07:11;;;;;;;41.90;5.07;;;23.50;1.00;;;;;;5029455;28;20418;-89
2023/09/06 18:09:52;;;;;;;46.27;4.77;;;23.20;1.00;;;;;;5022372;28;20948;-83
2023/09/06 18:15:58;;;;;;;43.23;5.03;;;22.80;1.00;;;;;;5024591;28;20432;-82
2023/09/06 18:18:24;;;;;;;37.00;4.70;;;;;;;;;;5029485;28;21035;-84
2023/09/06 18:21:41;;;;;;;38.60;5.00;;;22.40;1.00;;;;;;5030327;28;20911;-84
2023/09/06 18:24:52;;;;;;;37.90;4.57;;;22.20;1.00;;;;;;5025247;28;20439;-84
2023/09/06 18:27:35;;;;;;;44.43;5.00;;;22.00;1.00;;;;;;5031731;28;20467;-85
2023/09/06 18:30:23;;;;;;;41.10;5.47;;;21.90;1.00;;;;;;5032897;28;20458;-84
2023/09/06 18:36:17;;;;;;;43.50;5.03;;;;;;;;;;5025504;28;20551;-84
2023/09/06 18:38:43;;;;;;;42.70;7.07;;;;;;;;;;5031154;28;20434;-88
2023/09/06 18:41:09;;;;;;;41.00;7.03;;;21.20;1.00;;;;;;5019904;28;20426;-87
2023/09/06 18:43:37;;;;;;;48.10;6.53;;;21.20;1.00;;;;;;5019600;28;20436;-87
2023/09/06 18:46:06;;;;;;;46.43;6.80;;;21.10;1.00;;;;;;5016497;28;20280;-87
2023/09/06 18:48:35;;;;;;;45.20;7.00;;;21.00;1.00;;;;;;5030462;28;20454;-87
2023/09/06 18:51:06;;;;;;;42.20;7.20;;;20.90;1.00;;;;;;5025245;28;20443;-87